createdAt,value
2022-10-31T00:01:57.807Z,16.10
2022-10-31T00:04:43.651Z,17.10
2022-10-31T00:07:29.469Z,14.90
2022-10-31T00:10:15.679Z,14.60
2022-10-31T00:13:01.782Z,16.27
2022-10-31T00:15:47.912Z,16.70
2022-10-31T00:18:33.855Z,15.30
2022-10-31T00:21:20.280Z,16.17
2022-10-31T00:24:06.433Z,15.80
2022-10-31T00:26:52.654Z,15.70
2022-10-31T00:29:41.319Z,16.80
2022-10-31T00:32:27.176Z,18.10
2022-10-31T00:35:13.054Z,17.13
2022-10-31T00:37:59.101Z,16.50
2022-10-31T00:40:44.922Z,17.30
2022-10-31T00:43:31.083Z,16.40
2022-10-31T00:46:16.888Z,17.30
2022-10-31T00:49:02.736Z,17.07
2022-10-31T00:51:49.173Z,18.27
2022-10-31T00:54:34.967Z,16.77
2022-10-31T00:57:22.106Z,14.90
2022-10-31T01:00:08.939Z,16.07
2022-10-31T01:02:54.880Z,15.50
2022-10-31T01:05:40.712Z,16.43
2022-10-31T01:08:28.326Z,17.63
2022-10-31T01:11:16.791Z,15.40
2022-10-31T01:14:02.561Z,15.13
2022-10-31T01:16:51.640Z,15.50
2022-10-31T01:19:37.521Z,16.03
2022-10-31T01:22:23.730Z,14.70
2022-10-31T01:25:10.725Z,14.80
2022-10-31T01:27:56.928Z,16.07
2022-10-31T01:30:43.177Z,14.70
2022-10-31T01:33:29.308Z,16.30
2022-10-31T01:36:20.234Z,14.13
2022-10-31T01:39:12.043Z,15.23
2022-10-31T01:41:58.289Z,15.47
2022-10-31T01:44:44.185Z,16.87
2022-10-31T01:47:35.759Z,13.77
2022-10-31T01:50:31.702Z,14.43
2022-10-31T01:53:19.888Z,14.40
2022-10-31T01:56:09.422Z,16.53
2022-10-31T01:58:58.876Z,13.53
2022-10-31T02:01:44.833Z,12.73
2022-10-31T02:04:30.957Z,14.50
2022-10-31T02:07:20.147Z,13.27
2022-10-31T02:10:06.214Z,13.90
2022-10-31T02:12:56.512Z,13.37
2022-10-31T02:15:44.255Z,12.43
2022-10-31T02:18:32.087Z,15.83
2022-10-31T02:21:35.138Z,12.93
2022-10-31T02:24:36.982Z,14.00
2022-10-31T02:27:32.239Z,12.90
2022-10-31T02:30:25.646Z,13.00
2022-10-31T02:33:25.455Z,12.57
2022-10-31T02:36:34.705Z,12.83
2022-10-31T02:39:25.334Z,12.10
2022-10-31T02:42:18.594Z,12.17
2022-10-31T02:45:08.119Z,12.33
2022-10-31T02:47:55.596Z,12.50
2022-10-31T02:50:44.086Z,13.50
2022-10-31T02:53:34.184Z,13.50
2022-10-31T02:56:20.982Z,11.93
2022-10-31T02:59:07.318Z,12.20
2022-10-31T03:02:13.193Z,13.77
2022-10-31T03:05:19.396Z,13.67
2022-10-31T03:08:13.978Z,12.47
2022-10-31T03:11:08.836Z,12.23
2022-10-31T03:14:02.378Z,12.90
2022-10-31T03:16:49.694Z,12.63
2022-10-31T03:19:39.027Z,12.90
2022-10-31T03:22:27.091Z,13.10
2022-10-31T03:25:13.835Z,15.77
2022-10-31T03:28:01.789Z,18.97
2022-10-31T03:30:50.056Z,13.53
2022-10-31T03:33:37.607Z,11.93
2022-10-31T03:36:24.290Z,13.80
2022-10-31T03:39:12.188Z,13.60
2022-10-31T03:42:04.010Z,11.30
2022-10-31T03:44:54.318Z,12.20
2022-10-31T03:47:40.437Z,11.77
2022-10-31T03:50:29.296Z,12.83
2022-10-31T03:53:17.132Z,12.37
2022-10-31T03:56:04.555Z,12.80
2022-10-31T03:59:01.962Z,12.10
2022-10-31T04:01:50.463Z,11.50
2022-10-31T04:04:37.045Z,11.83
2022-10-31T04:07:27.869Z,12.97
2022-10-31T04:10:14.942Z,12.37
2022-10-31T04:13:06.211Z,13.07
2022-10-31T04:15:59.284Z,12.83
2022-10-31T04:18:45.303Z,12.90
2022-10-31T04:21:31.338Z,12.23
2022-10-31T04:24:18.247Z,12.33
2022-10-31T04:27:03.755Z,12.83
2022-10-31T04:29:50.948Z,13.83
2022-10-31T04:32:37.437Z,14.30
2022-10-31T04:35:23.785Z,14.70
2022-10-31T04:38:09.419Z,13.10
2022-10-31T04:40:55.010Z,13.00
2022-10-31T04:44:03.689Z,12.63
2022-10-31T04:46:49.475Z,11.13
2022-10-31T04:49:35.862Z,12.03
2022-10-31T04:52:21.959Z,11.53
2022-10-31T04:55:07.667Z,12.53
2022-10-31T04:58:26.077Z,10.87
2022-10-31T05:01:12.322Z,11.40
2022-10-31T05:03:58.785Z,12.87
2022-10-31T05:06:44.690Z,11.50
2022-10-31T05:09:30.254Z,11.30
2022-10-31T05:12:15.849Z,11.10
2022-10-31T05:15:21.556Z,11.50
2022-10-31T05:18:26.250Z,12.07
2022-10-31T05:21:34.606Z,12.10
2022-10-31T05:24:22.618Z,14.63
2022-10-31T05:27:08.695Z,15.93
2022-10-31T05:29:54.653Z,15.37
2022-10-31T05:32:44.878Z,15.63
2022-10-31T05:36:02.551Z,14.97
2022-10-31T05:39:17.828Z,16.13
2022-10-31T05:42:10.663Z,15.30
2022-10-31T05:44:56.425Z,14.23
2022-10-31T05:48:11.665Z,13.80
2022-10-31T05:51:16.150Z,13.90
2022-10-31T05:54:02.321Z,13.40
2022-10-31T05:56:49.247Z,14.13
2022-10-31T05:59:35.239Z,13.50
2022-10-31T06:02:21.554Z,12.40
2022-10-31T06:05:26.243Z,15.30
2022-10-31T06:08:13.354Z,14.03
2022-10-31T06:11:02.549Z,16.10
2022-10-31T06:14:07.287Z,14.80
2022-10-31T06:17:02.590Z,14.57
2022-10-31T06:20:07.114Z,19.67
2022-10-31T06:22:58.138Z,20.33
2022-10-31T06:25:44.448Z,17.43
2022-10-31T06:28:31.337Z,18.00
2022-10-31T06:31:29.558Z,17.20
2022-10-31T06:34:16.249Z,16.30
2022-10-31T06:37:01.781Z,14.87
2022-10-31T06:39:49.671Z,13.93
2022-10-31T06:42:36.014Z,13.20
2022-10-31T06:45:21.753Z,12.53
2022-10-31T06:48:26.631Z,13.30
2022-10-31T06:51:31.723Z,18.90
2022-10-31T06:54:19.311Z,17.80
2022-10-31T06:57:04.825Z,19.00
2022-10-31T06:59:51.256Z,15.13
2022-10-31T07:02:57.254Z,13.10
2022-10-31T07:05:43.634Z,13.47
2022-10-31T07:08:29.641Z,14.13
2022-10-31T07:11:16.417Z,12.90
2022-10-31T07:14:02.716Z,13.07
2022-10-31T07:16:52.104Z,13.47
2022-10-31T07:19:43.478Z,14.50
2022-10-31T07:22:37.404Z,16.53
2022-10-31T07:25:26.522Z,15.57
2022-10-31T07:28:28.944Z,14.83
2022-10-31T07:31:14.461Z,15.93
2022-10-31T07:34:00.677Z,16.03
2022-10-31T07:36:46.665Z,16.17
2022-10-31T07:39:33.176Z,18.60
2022-10-31T07:42:18.795Z,16.70
2022-10-31T07:45:06.767Z,15.80
2022-10-31T07:48:27.325Z,13.60
2022-10-31T07:51:31.778Z,13.70
2022-10-31T07:54:52.651Z,12.07
2022-10-31T07:57:42.455Z,13.00
2022-10-31T08:00:28.661Z,21.10
2022-10-31T08:03:16.797Z,20.83
2022-10-31T08:06:40.706Z,15.80
2022-10-31T08:09:37.231Z,14.67
2022-10-31T08:12:32.271Z,17.40
2022-10-31T08:15:17.997Z,16.67
2022-10-31T08:18:04.015Z,14.20
2022-10-31T08:20:56.754Z,16.77
2022-10-31T08:23:42.669Z,13.60
2022-10-31T08:26:28.559Z,14.10
2022-10-31T08:29:16.595Z,13.80
2022-10-31T08:32:02.694Z,17.27
2022-10-31T08:35:07.728Z,15.83
2022-10-31T08:38:13.363Z,14.73
2022-10-31T08:41:00.370Z,15.80
2022-10-31T08:43:46.866Z,16.10
2022-10-31T08:46:35.286Z,14.23
2022-10-31T08:49:21.028Z,15.13
2022-10-31T08:52:10.589Z,16.17
2022-10-31T08:55:00.639Z,16.43
2022-10-31T08:58:21.381Z,17.10
2022-10-31T09:01:11.921Z,16.17
2022-10-31T09:03:57.732Z,16.03
2022-10-31T09:07:07.810Z,17.87
2022-10-31T09:09:51.342Z,18.80
2022-10-31T09:12:38.546Z,18.20
2022-10-31T09:15:59.720Z,17.33
2022-10-31T09:18:45.494Z,21.13
2022-10-31T09:21:35.050Z,22.10
2022-10-31T09:24:21.797Z,20.63
2022-10-31T09:27:09.272Z,20.03
2022-10-31T09:29:58.287Z,18.10
2022-10-31T09:32:44.231Z,16.70
2022-10-31T09:35:30.602Z,16.30
2022-10-31T09:38:19.923Z,16.00
2022-10-31T09:41:21.266Z,15.90
2022-10-31T09:44:16.363Z,16.63
2022-10-31T09:47:17.616Z,16.20
2022-10-31T09:50:13.010Z,15.47
2022-10-31T09:53:02.724Z,17.53
2022-10-31T09:55:49.575Z,18.60
2022-10-31T09:58:39.391Z,17.40
2022-10-31T10:01:43.858Z,16.50
2022-10-31T10:04:32.560Z,15.43
2022-10-31T10:07:41.973Z,15.67
2022-10-31T10:10:56.862Z,16.13
2022-10-31T10:14:05.003Z,16.27
2022-10-31T10:16:58.455Z,17.13
2022-10-31T10:19:51.803Z,16.10
2022-10-31T10:22:58.945Z,23.57
2022-10-31T10:25:47.162Z,17.10
2022-10-31T10:28:39.143Z,15.30
2022-10-31T10:31:34.210Z,15.90
2022-10-31T10:34:26.189Z,16.77
2022-10-31T10:37:32.584Z,17.03
2022-10-31T10:40:21.374Z,16.00
2022-10-31T10:43:26.183Z,18.17
2022-10-31T10:46:47.026Z,15.60
2022-10-31T10:49:46.609Z,15.83
2022-10-31T10:52:49.464Z,15.53
2022-10-31T10:55:48.753Z,16.37
2022-10-31T10:58:34.504Z,16.57
2022-10-31T11:01:21.338Z,17.63
2022-10-31T11:04:16.491Z,17.20
2022-10-31T11:07:03.762Z,16.50
2022-10-31T11:09:49.604Z,15.90
2022-10-31T11:12:35.486Z,17.50
2022-10-31T11:15:23.851Z,17.03
2022-10-31T11:18:21.228Z,15.17
2022-10-31T11:21:07.029Z,16.27
2022-10-31T11:24:03.196Z,14.50
2022-10-31T11:26:50.553Z,14.33
2022-10-31T11:29:37.941Z,14.60
2022-10-31T11:32:25.337Z,16.37
2022-10-31T11:35:13.422Z,15.20
2022-10-31T11:38:00.880Z,16.70
2022-10-31T11:40:58.497Z,17.00
2022-10-31T11:43:50.452Z,15.90
2022-10-31T11:46:36.988Z,17.60
2022-10-31T11:49:28.837Z,16.53
2022-10-31T11:52:22.726Z,16.27
2022-10-31T11:55:28.341Z,16.63
2022-10-31T11:58:24.458Z,16.37
2022-10-31T12:01:27.010Z,16.27
2022-10-31T12:04:13.386Z,14.70
2022-10-31T12:06:58.965Z,15.20
2022-10-31T12:09:44.609Z,17.67
2022-10-31T12:12:36.271Z,16.87
2022-10-31T12:15:22.103Z,17.40
2022-10-31T12:18:07.711Z,15.73
2022-10-31T12:21:12.066Z,13.63
2022-10-31T12:24:01.076Z,16.40
2022-10-31T12:26:52.989Z,13.73
2022-10-31T12:29:41.847Z,15.10
2022-10-31T12:32:36.041Z,14.63
2022-10-31T12:35:37.263Z,16.10
2022-10-31T12:38:23.857Z,15.67
2022-10-31T12:41:10.990Z,12.10
2022-10-31T12:44:15.581Z,14.13
2022-10-31T12:47:01.467Z,15.80
2022-10-31T12:49:50.336Z,14.43
2022-10-31T12:53:05.622Z,12.73
2022-10-31T12:56:09.893Z,13.50
2022-10-31T12:58:58.325Z,12.93
2022-10-31T13:01:57.741Z,12.53
2022-10-31T13:04:52.148Z,12.80
2022-10-31T13:07:41.112Z,11.80
2022-10-31T13:10:57.603Z,12.97
2022-10-31T13:13:50.944Z,12.27
2022-10-31T13:16:38.954Z,13.20
2022-10-31T13:19:31.988Z,11.53
2022-10-31T13:22:24.118Z,12.23
2022-10-31T13:25:09.892Z,11.30
2022-10-31T13:27:58.533Z,10.30
2022-10-31T13:30:44.441Z,11.40
2022-10-31T13:33:41.461Z,13.30
2022-10-31T13:36:33.780Z,14.20
2022-10-31T13:39:33.786Z,14.37
2022-10-31T13:42:26.349Z,12.97
2022-10-31T13:45:16.696Z,11.03
2022-10-31T13:48:18.008Z,10.50
2022-10-31T13:51:08.619Z,10.87
2022-10-31T13:53:57.553Z,9.17
2022-10-31T13:56:43.289Z,11.40
2022-10-31T13:59:31.984Z,10.97
2022-10-31T14:02:18.307Z,11.10
2022-10-31T14:05:07.732Z,10.07
2022-10-31T14:07:57.014Z,11.40
2022-10-31T14:10:51.797Z,10.27
2022-10-31T14:13:42.509Z,10.53
2022-10-31T14:16:31.031Z,11.43
2022-10-31T14:19:22.422Z,10.97
2022-10-31T14:22:20.721Z,9.30
2022-10-31T14:25:25.480Z,9.60
2022-10-31T14:28:33.296Z,10.10
2022-10-31T14:31:33.320Z,12.03
2022-10-31T14:34:19.571Z,10.90
2022-10-31T14:37:14.417Z,10.60
2022-10-31T14:40:01.125Z,11.60
2022-10-31T14:43:05.320Z,11.33
2022-10-31T14:46:26.604Z,11.43
2022-10-31T14:49:25.281Z,11.17
2022-10-31T14:52:14.155Z,12.40
2022-10-31T14:55:01.443Z,11.50
2022-10-31T14:57:53.078Z,12.33
2022-10-31T15:00:39.043Z,10.17
2022-10-31T15:03:44.510Z,11.53
2022-10-31T15:06:42.352Z,12.83
2022-10-31T15:09:30.846Z,10.67
2022-10-31T15:12:24.565Z,12.60
2022-10-31T15:15:15.945Z,10.60
2022-10-31T15:18:05.323Z,11.33
2022-10-31T15:20:52.020Z,10.93
2022-10-31T15:23:37.782Z,10.00
2022-10-31T15:26:24.937Z,13.17
2022-10-31T15:29:15.318Z,13.77
2022-10-31T15:32:02.404Z,12.23
2022-10-31T15:34:48.986Z,11.70
2022-10-31T15:37:34.703Z,14.03
2022-10-31T15:40:21.821Z,11.87
2022-10-31T15:43:08.531Z,14.00
2022-10-31T15:45:54.521Z,14.27
2022-10-31T15:48:41.462Z,13.33
2022-10-31T15:51:28.262Z,15.70
2022-10-31T15:54:15.397Z,14.47
2022-10-31T15:57:01.393Z,14.00
2022-10-31T15:59:48.191Z,14.40
2022-10-31T16:02:34.035Z,16.13
2022-10-31T16:05:20.757Z,14.43
2022-10-31T16:08:06.828Z,15.23
2022-10-31T16:10:52.484Z,18.30
2022-10-31T16:13:39.532Z,16.90
2022-10-31T16:16:41.487Z,14.00
2022-10-31T16:19:29.892Z,15.10
2022-10-31T16:22:20.659Z,14.53
2022-10-31T16:25:14.952Z,15.07
2022-10-31T16:28:05.747Z,13.27
2022-10-31T16:30:55.305Z,13.27
2022-10-31T16:33:41.378Z,11.70
2022-10-31T16:36:36.351Z,14.33
2022-10-31T16:39:22.413Z,11.20
2022-10-31T16:42:11.160Z,10.83
2022-10-31T16:44:57.286Z,12.97
2022-10-31T16:47:43.357Z,13.40
2022-10-31T16:50:29.223Z,15.43
2022-10-31T16:53:18.524Z,17.07
2022-10-31T16:56:05.363Z,15.60
2022-10-31T16:58:52.127Z,16.70
2022-10-31T17:01:38.156Z,15.97
2022-10-31T17:04:24.252Z,13.73
2022-10-31T17:07:10.028Z,13.97
2022-10-31T17:09:55.929Z,15.90
2022-10-31T17:12:44.038Z,15.90
2022-10-31T17:15:30.444Z,14.70
2022-10-31T17:18:16.926Z,15.53
2022-10-31T17:21:03.511Z,17.20
2022-10-31T17:23:49.975Z,15.63
2022-10-31T17:26:35.864Z,16.43
2022-10-31T17:29:21.621Z,20.50
2022-10-31T17:32:07.490Z,17.80
2022-10-31T17:34:53.112Z,14.40
2022-10-31T17:37:39.407Z,14.87
2022-10-31T17:40:24.994Z,15.80
2022-10-31T17:43:11.037Z,15.00
2022-10-31T17:45:59.610Z,15.90
2022-10-31T17:48:45.271Z,14.80
2022-10-31T17:51:31.651Z,15.40
2022-10-31T17:54:18.720Z,17.77
2022-10-31T17:57:04.429Z,16.83
2022-10-31T17:59:50.056Z,19.37
2022-10-31T18:02:37.309Z,16.67
2022-10-31T18:05:25.382Z,16.17
2022-10-31T18:08:11.340Z,16.30
2022-10-31T18:11:00.245Z,16.07
2022-10-31T18:13:45.864Z,19.20
2022-10-31T18:16:31.735Z,17.13
2022-10-31T18:19:17.643Z,16.90
2022-10-31T18:22:03.511Z,17.20
2022-10-31T18:24:49.125Z,19.17
2022-10-31T18:27:35.160Z,18.53
2022-10-31T18:30:22.654Z,16.93
2022-10-31T18:33:08.670Z,17.80
2022-10-31T18:35:54.620Z,30.63
2022-10-31T18:38:41.595Z,25.10
2022-10-31T18:41:27.313Z,24.20
2022-10-31T18:44:13.255Z,20.50
2022-10-31T18:46:58.952Z,18.50
2022-10-31T18:49:44.978Z,18.57
2022-10-31T18:52:32.305Z,16.30
2022-10-31T18:55:17.809Z,18.43
2022-10-31T18:58:03.669Z,19.60
2022-10-31T19:00:49.687Z,19.63
2022-10-31T19:03:35.659Z,18.37
2022-10-31T19:06:21.973Z,21.33
2022-10-31T19:09:11.742Z,19.90
2022-10-31T19:11:57.036Z,18.13
2022-10-31T19:14:42.933Z,18.77
2022-10-31T19:17:28.905Z,18.33
2022-10-31T19:20:14.585Z,16.80
2022-10-31T19:23:00.513Z,17.70
2022-10-31T19:25:46.757Z,18.53
2022-10-31T19:28:34.089Z,17.90
2022-10-31T19:31:21.217Z,18.50
2022-10-31T19:34:07.071Z,19.23
2022-10-31T19:36:53.444Z,19.50
2022-10-31T19:39:43.981Z,18.90
2022-10-31T19:42:30.647Z,19.80
2022-10-31T19:45:16.105Z,16.33
2022-10-31T19:48:02.165Z,15.60
2022-10-31T19:50:49.248Z,18.70
2022-10-31T19:53:34.993Z,18.30
2022-10-31T19:56:22.087Z,17.17
2022-10-31T19:59:10.256Z,18.80
2022-10-31T20:01:56.193Z,16.80
2022-10-31T20:04:42.077Z,17.23
2022-10-31T20:07:27.641Z,18.70
2022-10-31T20:10:13.157Z,18.30
2022-10-31T20:12:59.326Z,19.63
2022-10-31T20:15:45.311Z,17.50
2022-10-31T20:18:31.491Z,16.10
2022-10-31T20:21:21.260Z,15.43
2022-10-31T20:24:08.703Z,16.40
2022-10-31T20:26:54.441Z,17.00
2022-10-31T20:29:40.152Z,17.63
2022-10-31T20:32:25.789Z,18.87
2022-10-31T20:35:11.730Z,17.93
2022-10-31T20:37:57.961Z,17.50
2022-10-31T20:40:43.775Z,16.03
2022-10-31T20:43:31.823Z,17.30
2022-10-31T20:46:20.225Z,15.80
2022-10-31T20:49:05.941Z,15.83
2022-10-31T20:51:51.792Z,14.43
2022-10-31T20:54:37.590Z,14.13
2022-10-31T20:57:23.044Z,15.20
2022-10-31T21:00:11.391Z,14.83
2022-10-31T21:02:57.012Z,16.23
2022-10-31T21:05:43.148Z,14.93
2022-10-31T21:08:29.990Z,13.70
2022-10-31T21:11:16.566Z,17.17
2022-10-31T21:14:02.206Z,13.60
2022-10-31T21:16:48.145Z,16.17
2022-10-31T21:19:36.244Z,15.20
2022-10-31T21:22:22.041Z,13.93
2022-10-31T21:25:08.052Z,15.63
2022-10-31T21:27:53.841Z,14.90
2022-10-31T21:30:47.294Z,16.83
2022-10-31T21:33:33.921Z,14.40
2022-10-31T21:36:20.623Z,15.27
2022-10-31T21:39:07.498Z,14.17
2022-10-31T21:41:53.226Z,13.50
2022-10-31T21:44:39.226Z,13.10
2022-10-31T21:47:25.025Z,15.00
2022-10-31T21:50:10.844Z,15.40
2022-10-31T21:53:17.442Z,14.20
2022-10-31T21:56:04.184Z,14.27
2022-10-31T21:58:49.727Z,15.50
2022-10-31T22:01:36.082Z,14.10
2022-10-31T22:04:21.772Z,13.97
2022-10-31T22:07:07.541Z,14.43
2022-10-31T22:09:53.460Z,12.90
2022-10-31T22:12:39.072Z,13.13
2022-10-31T22:15:24.919Z,13.50
2022-10-31T22:18:10.733Z,12.80
2022-10-31T22:21:03.827Z,13.30
2022-10-31T22:23:53.731Z,13.40
2022-10-31T22:26:40.332Z,16.67
2022-10-31T22:29:28.685Z,15.60
2022-10-31T22:32:14.188Z,17.13
2022-10-31T22:34:59.811Z,16.03
2022-10-31T22:37:45.838Z,17.43
2022-10-31T22:40:31.291Z,18.80
2022-10-31T22:43:17.353Z,17.00
2022-10-31T22:46:05.117Z,17.20
2022-10-31T22:48:51.971Z,16.70
2022-10-31T22:51:38.451Z,16.80
2022-10-31T22:54:24.245Z,16.33
2022-10-31T22:57:09.604Z,18.23
2022-10-31T22:59:55.529Z,17.37
2022-10-31T23:02:41.477Z,17.97
2022-10-31T23:05:27.343Z,19.50
2022-10-31T23:08:13.609Z,17.60
2022-10-31T23:10:59.171Z,18.60
2022-10-31T23:14:04.617Z,19.37
2022-10-31T23:16:54.405Z,17.27
2022-10-31T23:19:40.531Z,16.20
2022-10-31T23:22:26.289Z,19.60
2022-10-31T23:25:11.844Z,18.97
2022-10-31T23:27:59.730Z,18.83
2022-10-31T23:30:46.534Z,18.50
2022-10-31T23:33:32.090Z,16.40
2022-10-31T23:36:17.888Z,18.00
2022-10-31T23:39:03.906Z,18.20
2022-10-31T23:41:49.621Z,16.53
2022-10-31T23:44:35.562Z,16.43
2022-10-31T23:47:21.559Z,17.50
2022-10-31T23:50:07.547Z,17.73
2022-10-31T23:52:53.358Z,18.57
2022-10-31T23:55:39.249Z,18.67
2022-10-31T23:58:25.128Z,16.40
